createdAt,value
2023-04-26T00:02:05.369Z,98234.59
2023-04-26T00:04:34.372Z,98229.56
2023-04-26T00:07:02.160Z,98231.09
2023-04-26T00:09:29.937Z,98233.06
2023-04-26T00:11:57.558Z,98229.94
2023-04-26T00:14:26.165Z,98237.34
2023-04-26T00:16:53.687Z,98236.16
2023-04-26T00:19:21.692Z,98240.06
2023-04-26T00:21:49.183Z,98235.41
2023-04-26T00:24:16.709Z,98236.16
2023-04-26T00:26:44.143Z,98226.06
2023-04-26T00:29:11.730Z,98232.28
2023-04-26T00:31:40.249Z,98235.41
2023-04-26T00:34:07.890Z,98238.50
2023-04-26T00:36:35.333Z,98241.63
2023-04-26T00:39:03.120Z,98248.22
2023-04-26T00:41:30.620Z,98244.72
2023-04-26T00:43:58.099Z,98251.72
2023-04-26T00:46:26.770Z,98260.28
2023-04-26T00:48:54.561Z,98258.69
2023-04-26T00:51:22.363Z,98263.72
2023-04-26T00:53:50.134Z,98263.34
2023-04-26T00:56:17.796Z,98259.06
2023-04-26T00:58:46.606Z,98259.84
2023-04-26T01:01:14.293Z,98261.06
2023-04-26T01:03:43.350Z,98262.63
2023-04-26T01:06:12.839Z,98259.88
2023-04-26T01:08:40.780Z,98264.16
2023-04-26T01:11:08.779Z,98247.00
2023-04-26T01:13:38.576Z,98258.72
2023-04-26T01:16:08.804Z,98252.50
2023-04-26T01:18:36.512Z,98245.13
2023-04-26T01:21:05.350Z,98237.72
2023-04-26T01:23:33.029Z,98238.50
2023-04-26T01:26:00.687Z,98234.63
2023-04-26T01:28:28.149Z,98241.59
2023-04-26T01:30:57.139Z,98247.03
2023-04-26T01:33:25.040Z,98243.13
2023-04-26T01:35:52.676Z,98245.84
2023-04-26T01:38:20.441Z,98241.94
2023-04-26T01:40:48.014Z,98245.41
2023-04-26T01:43:16.821Z,98235.22
2023-04-26T01:45:49.633Z,98243.81
2023-04-26T01:48:30.920Z,98237.94
2023-04-26T01:51:01.602Z,98235.94
2023-04-26T01:53:29.061Z,98228.09
2023-04-26T01:55:56.664Z,98229.63
2023-04-26T01:58:24.284Z,98223.72
2023-04-26T02:00:55.032Z,98231.81
2023-04-26T02:03:24.819Z,98226.28
2023-04-26T02:05:52.383Z,98233.25
2023-04-26T02:08:19.876Z,98239.06
2023-04-26T02:10:47.543Z,98231.22
2023-04-26T02:13:15.752Z,98229.59
2023-04-26T02:15:47.089Z,98230.63
2023-04-26T02:18:15.553Z,98236.06
2023-04-26T02:20:44.610Z,98233.63
2023-04-26T02:23:12.861Z,98230.81
2023-04-26T02:25:47.160Z,98228.72
2023-04-26T02:28:16.508Z,98233.69
2023-04-26T02:30:44.677Z,98227.72
2023-04-26T02:33:12.185Z,98218.59
2023-04-26T02:35:40.022Z,98228.13
2023-04-26T02:38:07.653Z,98216.06
2023-04-26T02:40:36.197Z,98219.22
2023-04-26T02:43:03.916Z,98220.03
2023-04-26T02:45:31.407Z,98216.91
2023-04-26T02:47:59.566Z,98215.00
2023-04-26T02:50:27.709Z,98208.19
2023-04-26T02:52:55.174Z,98214.25
2023-04-26T02:55:22.654Z,98221.63
2023-04-26T02:57:50.766Z,98212.41
2023-04-26T03:00:18.285Z,98217.25
2023-04-26T03:02:45.883Z,98206.00
2023-04-26T03:05:14.030Z,98213.72
2023-04-26T03:07:41.921Z,98213.25
2023-04-26T03:10:10.111Z,98219.09
2023-04-26T03:12:39.119Z,98215.09
2023-04-26T03:15:07.076Z,98213.97
2023-04-26T03:17:34.838Z,98210.81
2023-04-26T03:20:05.983Z,98201.88
2023-04-26T03:22:34.404Z,98207.34
2023-04-26T03:25:02.041Z,98199.91
2023-04-26T03:27:31.421Z,98209.53
2023-04-26T03:30:00.869Z,98197.66
2023-04-26T03:32:31.360Z,98199.91
2023-04-26T03:34:58.979Z,98202.56
2023-04-26T03:37:26.496Z,98201.66
2023-04-26T03:40:00.468Z,98204.69
2023-04-26T03:42:27.918Z,98205.34
2023-04-26T03:44:55.432Z,98208.69
2023-04-26T03:47:23.481Z,98204.59
2023-04-26T03:49:52.061Z,98205.13
2023-04-26T03:52:20.230Z,98201.78
2023-04-26T03:54:48.352Z,98205.78
2023-04-26T03:57:15.848Z,98196.94
2023-04-26T03:59:43.629Z,98201.34
2023-04-26T04:02:11.150Z,98197.97
2023-04-26T04:04:38.899Z,98201.56
2023-04-26T04:07:07.063Z,98197.50
2023-04-26T04:09:35.267Z,98197.44
2023-04-26T04:12:03.347Z,98190.97
2023-04-26T04:14:30.975Z,98188.00
2023-04-26T04:16:59.802Z,98190.91
2023-04-26T04:19:28.387Z,98196.53
2023-04-26T04:21:56.606Z,98190.72
2023-04-26T04:24:25.993Z,98185.91
2023-04-26T04:26:53.728Z,98193.63
2023-04-26T04:29:21.262Z,98189.09
2023-04-26T04:31:48.994Z,98182.16
2023-04-26T04:34:16.744Z,98183.41
2023-04-26T04:36:45.415Z,98177.19
2023-04-26T04:39:16.396Z,98176.69
2023-04-26T04:41:48.535Z,98172.91
2023-04-26T04:44:21.862Z,98172.94
2023-04-26T04:46:49.408Z,98161.09
2023-04-26T04:49:18.900Z,98158.16
2023-04-26T04:51:46.635Z,98155.19
2023-04-26T04:54:16.557Z,98162.13
2023-04-26T04:56:46.167Z,98162.81
2023-04-26T04:59:15.524Z,98156.78
2023-04-26T05:01:43.136Z,98146.00
2023-04-26T05:04:14.673Z,98155.78
2023-04-26T05:06:42.605Z,98149.59
2023-04-26T05:09:11.692Z,98146.22
2023-04-26T05:11:39.800Z,98149.03
2023-04-26T05:14:10.024Z,98145.53
2023-04-26T05:16:38.700Z,98147.69
2023-04-26T05:19:09.238Z,98151.00
2023-04-26T05:21:37.621Z,98148.31
2023-04-26T05:24:06.687Z,98132.53
2023-04-26T05:26:36.122Z,98150.91
2023-04-26T05:29:19.057Z,98137.50
2023-04-26T05:32:07.115Z,98141.28
2023-04-26T05:34:41.587Z,98144.34
2023-04-26T05:37:12.807Z,98139.34
2023-04-26T05:39:40.235Z,98148.34
2023-04-26T05:42:08.077Z,98133.94
2023-04-26T05:44:36.382Z,98140.56
2023-04-26T05:47:03.860Z,98128.41
2023-04-26T05:49:31.777Z,98138.13
2023-04-26T05:52:03.867Z,98134.06
2023-04-26T05:54:31.577Z,98124.34
2023-04-26T05:56:59.369Z,98121.22
2023-04-26T05:59:33.159Z,98120.88
2023-04-26T06:02:01.758Z,98121.16
2023-04-26T06:04:30.298Z,98120.38
2023-04-26T06:07:07.858Z,98108.91
2023-04-26T06:09:35.529Z,98105.44
2023-04-26T06:12:04.589Z,98107.22
2023-04-26T06:14:35.440Z,98096.31
2023-04-26T06:17:07.560Z,98092.00
2023-04-26T06:19:35.138Z,98093.28
2023-04-26T06:22:02.677Z,98083.63
2023-04-26T06:24:30.856Z,98094.56
2023-04-26T06:26:59.140Z,98073.94
2023-04-26T06:29:26.862Z,98078.00
2023-04-26T06:31:54.857Z,98075.72
2023-04-26T06:34:24.780Z,98088.03
2023-04-26T06:36:52.432Z,98078.19
2023-04-26T06:39:21.432Z,98069.72
2023-04-26T06:41:50.996Z,98067.63
2023-04-26T06:44:27.579Z,98064.53
2023-04-26T06:47:02.259Z,98064.25
2023-04-26T06:49:29.813Z,98061.63
2023-04-26T06:51:58.053Z,98052.75
2023-04-26T06:54:29.301Z,98062.63
2023-04-26T06:56:57.947Z,98058.69
2023-04-26T06:59:26.327Z,98048.59
2023-04-26T07:01:54.866Z,98060.38
2023-04-26T07:04:22.830Z,98056.13
2023-04-26T07:06:50.784Z,98062.63
2023-04-26T07:09:18.204Z,98046.91
2023-04-26T07:11:48.576Z,98046.53
2023-04-26T07:14:16.178Z,98059.44
2023-04-26T07:16:44.592Z,98042.88
2023-04-26T07:19:12.210Z,98046.25
2023-04-26T07:21:39.696Z,98033.75
2023-04-26T07:24:07.253Z,98033.53
2023-04-26T07:26:37.322Z,98038.34
2023-04-26T07:29:04.863Z,98021.75
2023-04-26T07:31:32.648Z,98017.34
2023-04-26T07:34:00.261Z,98016.78
2023-04-26T07:36:28.242Z,98009.63
2023-04-26T07:38:55.756Z,98012.19
2023-04-26T07:41:23.593Z,98014.97
2023-04-26T07:43:51.214Z,98010.22
2023-04-26T07:46:19.093Z,98006.66
2023-04-26T07:48:46.748Z,98010.66
2023-04-26T07:51:14.407Z,97999.84
2023-04-26T07:53:42.093Z,98009.53
2023-04-26T07:56:10.203Z,98012.41
2023-04-26T07:58:39.522Z,98014.69
2023-04-26T08:01:07.366Z,97990.88
2023-04-26T08:03:35.236Z,97990.09
2023-04-26T08:06:03.422Z,97987.41
2023-04-26T08:08:32.561Z,97990.78
2023-04-26T08:11:00.212Z,97981.66
2023-04-26T08:13:29.338Z,97997.06
2023-04-26T08:15:57.154Z,97986.69
2023-04-26T08:18:24.671Z,97993.28
2023-04-26T08:20:52.161Z,97986.56
2023-04-26T08:23:19.963Z,97984.66
2023-04-26T08:25:48.035Z,97989.53
2023-04-26T08:28:16.218Z,97967.78
2023-04-26T08:30:44.075Z,97979.66
2023-04-26T08:33:11.692Z,97979.97
2023-04-26T08:35:39.142Z,97980.13
2023-04-26T08:38:06.583Z,97981.44
2023-04-26T08:40:34.406Z,97976.22
2023-04-26T08:43:01.808Z,97974.78
2023-04-26T08:45:29.339Z,97986.66
2023-04-26T08:48:04.904Z,97980.25
2023-04-26T08:50:35.035Z,97993.28
2023-04-26T08:53:02.655Z,97976.75
2023-04-26T08:55:30.645Z,97985.78
2023-04-26T08:57:58.865Z,97985.84
2023-04-26T09:00:27.631Z,97993.09
2023-04-26T09:02:55.226Z,97985.69
2023-04-26T09:05:27.462Z,97984.19
2023-04-26T09:08:01.151Z,97981.91
2023-04-26T09:10:28.810Z,97986.41
2023-04-26T09:12:56.779Z,97975.03
2023-04-26T09:15:26.692Z,97997.56
2023-04-26T09:17:54.808Z,97995.34
2023-04-26T09:20:24.548Z,98001.56
2023-04-26T09:23:12.998Z,98000.25
2023-04-26T09:25:40.681Z,98001.88
2023-04-26T09:28:22.691Z,98013.19
2023-04-26T09:30:50.846Z,98003.50
2023-04-26T09:33:19.757Z,97997.47
2023-04-26T09:35:47.257Z,98003.41
2023-04-26T09:38:16.939Z,98003.50
2023-04-26T09:40:49.798Z,98007.59
2023-04-26T09:43:19.560Z,98018.53
2023-04-26T09:45:54.290Z,98012.50
2023-04-26T09:48:26.094Z,98009.13
2023-04-26T09:50:56.312Z,98017.66
2023-04-26T09:53:37.590Z,97993.16
2023-04-26T09:56:10.711Z,98007.69
2023-04-26T09:58:59.739Z,97993.53
2023-04-26T10:01:31.692Z,97996.03
2023-04-26T10:04:02.202Z,98004.00
2023-04-26T10:06:30.045Z,97993.72
2023-04-26T10:08:58.093Z,98004.59
2023-04-26T10:11:27.426Z,98017.78
2023-04-26T10:13:55.617Z,98018.44
2023-04-26T10:16:24.105Z,98019.44
2023-04-26T10:18:52.030Z,98021.75
2023-04-26T10:21:35.719Z,98026.69
2023-04-26T10:24:03.676Z,98021.91
2023-04-26T10:26:57.777Z,98032.06
2023-04-26T10:29:28.226Z,98046.06
2023-04-26T10:32:04.734Z,98040.97
2023-04-26T10:34:34.300Z,98043.72
2023-04-26T10:37:11.160Z,98054.97
2023-04-26T10:39:40.201Z,98034.97
2023-04-26T10:42:30.450Z,98057.84
2023-04-26T10:45:21.187Z,98066.94
2023-04-26T10:47:48.828Z,98063.13
2023-04-26T10:50:16.482Z,98070.34
2023-04-26T10:53:04.056Z,98061.00
2023-04-26T10:55:42.019Z,98067.91
2023-04-26T10:58:30.506Z,98065.47
2023-04-26T11:01:07.511Z,98045.00
2023-04-26T11:03:35.524Z,98012.72
2023-04-26T11:06:16.028Z,97975.59
2023-04-26T11:08:43.613Z,97982.47
2023-04-26T11:11:12.885Z,97978.38
2023-04-26T11:13:44.455Z,97959.13
2023-04-26T11:16:16.763Z,97963.25
2023-04-26T11:18:46.369Z,97976.84
2023-04-26T11:21:18.363Z,97955.56
2023-04-26T11:23:55.803Z,97947.38
2023-04-26T11:26:24.998Z,97921.31
2023-04-26T11:28:52.714Z,97913.75
2023-04-26T11:31:20.379Z,97914.00
2023-04-26T11:33:50.593Z,97928.34
2023-04-26T11:36:19.998Z,97930.78
2023-04-26T11:38:47.844Z,97945.88
2023-04-26T11:41:15.282Z,97937.19
2023-04-26T11:43:42.874Z,97937.94
2023-04-26T11:46:10.569Z,97936.09
2023-04-26T11:48:39.684Z,97937.50
2023-04-26T11:51:09.160Z,97934.88
2023-04-26T11:53:41.558Z,97939.28
2023-04-26T11:56:20.627Z,97918.69
2023-04-26T11:58:50.877Z,97908.91
2023-04-26T12:01:26.653Z,97917.94
2023-04-26T12:03:59.322Z,97935.50
2023-04-26T12:06:33.110Z,97923.97
2023-04-26T12:09:05.948Z,97908.69
2023-04-26T12:11:33.545Z,97906.03
2023-04-26T12:14:01.981Z,97917.78
2023-04-26T12:16:29.605Z,97897.19
2023-04-26T12:18:57.757Z,97896.31
2023-04-26T12:21:28.159Z,97893.75
2023-04-26T12:23:57.315Z,97880.69
2023-04-26T12:26:46.324Z,97884.19
2023-04-26T12:29:13.841Z,97875.56
2023-04-26T12:31:42.089Z,97882.00
2023-04-26T12:34:09.803Z,97887.44
2023-04-26T12:36:37.469Z,97862.66
2023-04-26T12:39:05.626Z,97871.53
2023-04-26T12:41:33.162Z,97870.06
2023-04-26T12:44:01.272Z,97874.72
2023-04-26T12:46:28.779Z,97873.56
2023-04-26T12:48:56.311Z,97857.59
2023-04-26T12:51:23.787Z,97850.41
2023-04-26T12:53:51.377Z,97850.50
2023-04-26T12:56:19.049Z,97860.38
2023-04-26T12:58:46.638Z,97829.00
2023-04-26T13:01:14.690Z,97830.13
2023-04-26T13:03:43.351Z,97811.63
2023-04-26T13:06:13.654Z,97821.75
2023-04-26T13:08:42.014Z,97819.09
2023-04-26T13:11:10.773Z,97823.28
2023-04-26T13:13:43.459Z,97827.56
2023-04-26T13:16:13.300Z,97844.44
2023-04-26T13:18:41.942Z,97821.31
2023-04-26T13:21:09.460Z,97822.00
2023-04-26T13:23:37.042Z,97810.34
2023-04-26T13:26:04.554Z,97812.56
2023-04-26T13:28:32.237Z,97807.81
2023-04-26T13:30:59.888Z,97805.78
2023-04-26T13:33:27.625Z,97818.25
2023-04-26T13:35:55.056Z,97801.22
2023-04-26T13:38:22.619Z,97788.13
2023-04-26T13:40:50.112Z,97792.63
2023-04-26T13:43:17.871Z,97790.03
2023-04-26T13:45:45.413Z,97778.25
2023-04-26T13:48:15.119Z,97792.91
2023-04-26T13:50:44.318Z,97772.25
2023-04-26T13:53:13.337Z,97770.34
2023-04-26T13:55:40.985Z,97753.59
2023-04-26T13:58:08.574Z,97751.97
2023-04-26T14:00:36.757Z,97753.94
2023-04-26T14:03:04.608Z,97751.13
2023-04-26T14:05:32.286Z,97740.75
2023-04-26T14:08:00.689Z,97746.25
2023-04-26T14:10:32.006Z,97745.81
2023-04-26T14:12:59.810Z,97731.75
2023-04-26T14:15:27.302Z,97731.41
2023-04-26T14:17:54.870Z,97719.88
2023-04-26T14:20:23.922Z,97717.91
2023-04-26T14:22:51.677Z,97709.09
2023-04-26T14:25:19.550Z,97715.75
2023-04-26T14:27:47.718Z,97711.72
2023-04-26T14:30:15.856Z,97709.84
2023-04-26T14:32:43.709Z,97704.22
2023-04-26T14:35:11.300Z,97705.63
2023-04-26T14:37:39.158Z,97701.34
2023-04-26T14:40:08.321Z,97706.66
2023-04-26T14:42:36.531Z,97698.63
2023-04-26T14:45:04.678Z,97690.50
2023-04-26T14:47:33.049Z,97687.09
2023-04-26T14:50:00.539Z,97691.59
2023-04-26T14:52:29.429Z,97673.88
2023-04-26T14:54:57.594Z,97663.66
2023-04-26T14:57:25.271Z,97669.00
2023-04-26T14:59:52.768Z,97670.94
2023-04-26T15:02:20.333Z,97668.63
2023-04-26T15:04:48.005Z,97662.81
2023-04-26T15:07:28.769Z,97661.53
2023-04-26T15:09:59.259Z,97662.56
2023-04-26T15:12:26.727Z,97657.63
2023-04-26T15:14:54.580Z,97638.38
2023-04-26T15:17:22.283Z,97644.03
2023-04-26T15:19:49.712Z,97638.06
2023-04-26T15:22:17.481Z,97655.75
2023-04-26T15:24:45.064Z,97633.94
2023-04-26T15:27:13.029Z,97631.50
2023-04-26T15:29:40.645Z,97636.03
2023-04-26T15:32:08.133Z,97631.41
2023-04-26T15:34:45.444Z,97636.53
2023-04-26T15:37:13.193Z,97623.00
2023-04-26T15:39:40.703Z,97613.59
2023-04-26T15:42:08.308Z,97613.69
2023-04-26T15:44:35.958Z,97628.81
2023-04-26T15:47:04.113Z,97620.41
2023-04-26T15:49:31.869Z,97616.56
2023-04-26T15:51:59.431Z,97624.19
2023-04-26T15:54:27.097Z,97611.91
2023-04-26T15:56:55.552Z,97615.84
2023-04-26T15:59:23.336Z,97617.44
2023-04-26T16:01:51.255Z,97608.28
2023-04-26T16:04:19.120Z,97611.72
2023-04-26T16:06:46.806Z,97615.88
2023-04-26T16:09:25.204Z,97617.81
2023-04-26T16:11:53.641Z,97613.84
2023-04-26T16:14:21.464Z,97607.84
2023-04-26T16:16:49.089Z,97603.25
2023-04-26T16:19:17.672Z,97602.31
2023-04-26T16:21:45.395Z,97592.94
2023-04-26T16:24:13.170Z,97593.06
2023-04-26T16:26:41.301Z,97583.25
2023-04-26T16:29:08.930Z,97583.34
2023-04-26T16:31:37.107Z,97575.91
2023-04-26T16:34:04.962Z,97580.59
2023-04-26T16:36:33.241Z,97571.91
2023-04-26T16:39:01.129Z,97567.09
2023-04-26T16:41:28.664Z,97565.72
2023-04-26T16:43:56.372Z,97568.38
2023-04-26T16:46:24.073Z,97556.06
2023-04-26T16:48:52.049Z,97557.94
2023-04-26T16:51:19.436Z,97547.44
2023-04-26T16:53:47.052Z,97555.84
2023-04-26T16:56:14.527Z,97547.22
2023-04-26T16:58:42.531Z,97545.66
2023-04-26T17:01:10.085Z,97536.66
2023-04-26T17:03:37.722Z,97540.28
2023-04-26T17:06:06.920Z,97534.38
2023-04-26T17:08:34.512Z,97533.59
2023-04-26T17:11:02.154Z,97533.34
2023-04-26T17:13:31.172Z,97530.84
2023-04-26T17:15:58.838Z,97528.66
2023-04-26T17:18:26.611Z,97527.31
2023-04-26T17:20:56.533Z,97519.22
2023-04-26T17:23:24.871Z,97512.22
2023-04-26T17:25:54.998Z,97524.47
2023-04-26T17:28:23.022Z,97527.97
2023-04-26T17:30:50.713Z,97518.69
2023-04-26T17:33:18.468Z,97516.91
2023-04-26T17:35:47.518Z,97512.25
2023-04-26T17:38:15.127Z,97506.34
2023-04-26T17:40:42.594Z,97510.06
2023-04-26T17:43:10.131Z,97505.94
2023-04-26T17:45:37.632Z,97501.66
2023-04-26T17:48:05.690Z,97497.16
2023-04-26T17:50:33.343Z,97489.88
2023-04-26T17:53:00.901Z,97493.28
2023-04-26T17:55:28.373Z,97487.88
2023-04-26T17:57:56.005Z,97483.81
2023-04-26T18:00:24.335Z,97480.59
2023-04-26T18:02:51.943Z,97479.63
2023-04-26T18:05:19.686Z,97475.25
2023-04-26T18:07:47.623Z,97472.19
2023-04-26T18:10:15.068Z,97460.88
2023-04-26T18:12:42.610Z,97468.38
2023-04-26T18:15:10.317Z,97462.53
2023-04-26T18:17:37.991Z,97458.84
2023-04-26T18:20:06.873Z,97452.56
2023-04-26T18:22:34.376Z,97449.81
2023-04-26T18:25:01.936Z,97438.53
2023-04-26T18:27:30.710Z,97425.25
2023-04-26T18:29:58.598Z,97431.78
2023-04-26T18:32:26.312Z,97436.56
2023-04-26T18:34:53.808Z,97433.06
2023-04-26T18:37:21.392Z,97432.47
2023-04-26T18:39:49.114Z,97421.81
2023-04-26T18:42:22.124Z,97416.50
2023-04-26T18:44:49.865Z,97423.19
2023-04-26T18:47:17.415Z,97417.84
2023-04-26T18:49:44.859Z,97415.44
2023-04-26T18:52:12.306Z,97417.91
2023-04-26T18:54:39.882Z,97410.97
2023-04-26T18:57:07.365Z,97406.38
2023-04-26T18:59:34.924Z,97405.41
2023-04-26T19:02:04.579Z,97410.19
2023-04-26T19:04:32.610Z,97408.94
2023-04-26T19:07:01.224Z,97408.31
2023-04-26T19:09:36.991Z,97412.16
2023-04-26T19:12:10.713Z,97395.88
2023-04-26T19:14:38.187Z,97403.91
2023-04-26T19:17:05.660Z,97398.94
2023-04-26T19:19:33.287Z,97401.16
2023-04-26T19:22:01.572Z,97397.47
2023-04-26T19:24:29.323Z,97396.13
2023-04-26T19:26:56.802Z,97400.13
2023-04-26T19:29:24.444Z,97405.16
2023-04-26T19:31:52.127Z,97398.25
2023-04-26T19:34:19.816Z,97399.78
2023-04-26T19:36:47.284Z,97393.97
2023-04-26T19:39:16.835Z,97390.41
2023-04-26T19:41:44.431Z,97383.03
2023-04-26T19:44:13.182Z,97375.03
2023-04-26T19:46:41.273Z,97372.72
2023-04-26T19:49:09.018Z,97374.84
2023-04-26T19:51:36.562Z,97368.63
2023-04-26T19:54:04.270Z,97374.34
2023-04-26T19:56:31.811Z,97364.16
2023-04-26T19:58:59.520Z,97362.66
2023-04-26T20:01:27.928Z,97368.94
2023-04-26T20:03:55.613Z,97349.41
2023-04-26T20:06:23.243Z,97368.47
2023-04-26T20:08:50.812Z,97362.47
2023-04-26T20:11:19.555Z,97361.50
2023-04-26T20:13:47.003Z,97366.63
2023-04-26T20:16:14.626Z,97365.75
2023-04-26T20:18:42.522Z,97361.16
2023-04-26T20:21:10.094Z,97355.88
2023-04-26T20:23:38.128Z,97358.53
2023-04-26T20:26:05.643Z,97354.72
2023-04-26T20:28:33.427Z,97344.91
2023-04-26T20:31:00.875Z,97344.91
2023-04-26T20:33:29.410Z,97339.94
2023-04-26T20:35:56.983Z,97345.84
2023-04-26T20:38:24.569Z,97347.47
2023-04-26T20:40:51.956Z,97340.75
2023-04-26T20:43:19.418Z,97350.50
2023-04-26T20:45:47.043Z,97344.84
2023-04-26T20:48:14.633Z,97342.88
2023-04-26T20:50:42.106Z,97346.97
2023-04-26T20:53:09.645Z,97350.84
2023-04-26T20:55:37.240Z,97345.09
2023-04-26T20:58:04.818Z,97340.91
2023-04-26T21:00:32.388Z,97344.22
2023-04-26T21:03:00.083Z,97343.72
2023-04-26T21:05:27.855Z,97341.50
2023-04-26T21:07:55.406Z,97341.81
2023-04-26T21:10:22.909Z,97346.88
2023-04-26T21:12:50.496Z,97338.94
2023-04-26T21:15:18.186Z,97327.38
2023-04-26T21:17:45.752Z,97330.78
2023-04-26T21:20:13.401Z,97338.41
2023-04-26T21:22:41.065Z,97323.00
2023-04-26T21:25:08.997Z,97327.25
2023-04-26T21:27:38.179Z,97308.22
2023-04-26T21:30:06.376Z,97323.78
2023-04-26T21:32:33.941Z,97320.19
2023-04-26T21:35:01.525Z,97323.13
2023-04-26T21:37:29.241Z,97315.25
2023-04-26T21:39:56.768Z,97319.28
2023-04-26T21:42:24.209Z,97314.44
2023-04-26T21:44:51.893Z,97309.53
2023-04-26T21:47:20.169Z,97315.00
2023-04-26T21:49:47.716Z,97318.81
2023-04-26T21:52:15.272Z,97314.66
2023-04-26T21:54:42.789Z,97315.00
2023-04-26T21:57:10.470Z,97312.91
2023-04-26T21:59:42.416Z,97301.28
2023-04-26T22:02:10.164Z,97295.97
2023-04-26T22:04:37.637Z,97298.63
2023-04-26T22:07:05.180Z,97289.00
2023-04-26T22:09:32.868Z,97282.22
2023-04-26T22:12:00.365Z,97292.28
2023-04-26T22:14:27.848Z,97297.44
2023-04-26T22:16:55.524Z,97297.09
2023-04-26T22:19:23.143Z,97292.28
2023-04-26T22:21:50.800Z,97283.09
2023-04-26T22:24:18.250Z,97284.94
2023-04-26T22:26:48.712Z,97292.84
2023-04-26T22:29:16.630Z,97290.00
2023-04-26T22:31:44.135Z,97288.81
2023-04-26T22:34:12.085Z,97290.34
2023-04-26T22:36:40.113Z,97283.22
2023-04-26T22:39:07.657Z,97278.97
2023-04-26T22:41:35.345Z,97277.34
2023-04-26T22:44:02.832Z,97279.53
2023-04-26T22:46:30.517Z,97287.72
2023-04-26T22:48:58.096Z,97286.97
2023-04-26T22:51:25.835Z,97287.72
2023-04-26T22:53:53.259Z,97290.59
2023-04-26T22:56:20.726Z,97284.25
2023-04-26T22:58:48.761Z,97288.41
2023-04-26T23:01:16.258Z,97284.38
2023-04-26T23:03:43.855Z,97290.19
2023-04-26T23:06:11.369Z,97287.31
2023-04-26T23:08:41.243Z,97290.03
2023-04-26T23:11:11.887Z,97279.88
2023-04-26T23:13:39.449Z,97283.06
2023-04-26T23:16:07.449Z,97281.94
2023-04-26T23:18:35.361Z,97288.94
2023-04-26T23:21:02.956Z,97293.00
2023-04-26T23:23:30.789Z,97287.31
2023-04-26T23:25:58.477Z,97294.75
2023-04-26T23:28:25.930Z,97296.06
2023-04-26T23:30:53.454Z,97299.13
2023-04-26T23:33:21.065Z,97289.72
2023-04-26T23:35:48.595Z,97289.19
2023-04-26T23:38:16.249Z,97284.47
2023-04-26T23:40:43.888Z,97276.38
2023-04-26T23:43:13.274Z,97285.88
2023-04-26T23:45:47.369Z,97297.06
2023-04-26T23:48:15.838Z,97290.91
2023-04-26T23:50:43.712Z,97291.25
2023-04-26T23:53:11.234Z,97288.28
2023-04-26T23:55:40.006Z,97301.16
2023-04-26T23:58:09.434Z,97291.09
